createdAt,value
2023-02-06T00:00:23.590Z,-3.96
2023-02-06T00:03:15.912Z,-4.02
2023-02-06T00:05:56.947Z,-4.00
2023-02-06T00:08:29.877Z,-4.00
2023-02-06T00:11:07.505Z,-4.05
2023-02-06T00:13:40.312Z,-4.07
2023-02-06T00:16:20.051Z,-4.07
2023-02-06T00:18:53.117Z,-4.05
2023-02-06T00:21:27.258Z,-4.04
2023-02-06T00:24:02.352Z,-4.02
2023-02-06T00:26:35.380Z,-4.01
2023-02-06T00:29:08.226Z,-3.99
2023-02-06T00:31:41.142Z,-3.95
2023-02-06T00:34:13.515Z,-3.83
2023-02-06T00:36:45.959Z,-3.70
2023-02-06T00:39:19.564Z,-3.54
2023-02-06T00:41:51.936Z,-3.37
2023-02-06T00:44:24.632Z,-3.27
2023-02-06T00:46:58.968Z,-3.20
2023-02-06T00:49:31.220Z,-3.17
2023-02-06T00:52:03.607Z,-3.11
2023-02-06T00:54:35.863Z,-3.07
2023-02-06T00:57:08.063Z,-3.05
2023-02-06T00:59:40.323Z,-3.06
2023-02-06T01:02:12.554Z,-3.04
2023-02-06T01:04:44.942Z,-3.06
2023-02-06T01:07:17.324Z,-3.14
2023-02-06T01:09:49.784Z,-3.20
2023-02-06T01:12:22.467Z,-3.25
2023-02-06T01:14:54.936Z,-3.29
2023-02-06T01:17:27.185Z,-3.31
2023-02-06T01:19:59.687Z,-3.31
2023-02-06T01:22:34.135Z,-3.37
2023-02-06T01:25:07.710Z,-3.36
2023-02-06T01:27:41.009Z,-3.36
2023-02-06T01:30:15.328Z,-3.33
2023-02-06T01:32:47.734Z,-3.32
2023-02-06T01:35:21.404Z,-3.36
2023-02-06T01:37:53.980Z,-3.42
2023-02-06T01:40:26.567Z,-3.37
2023-02-06T01:42:58.854Z,-3.35
2023-02-06T01:45:41.378Z,-3.34
2023-02-06T01:48:19.550Z,-3.33
2023-02-06T01:50:55.293Z,-3.29
2023-02-06T01:53:28.798Z,-3.29
2023-02-06T01:56:04.647Z,-3.32
2023-02-06T01:58:40.095Z,-3.29
2023-02-06T02:01:13.086Z,-3.28
2023-02-06T02:03:46.817Z,-3.24
2023-02-06T02:06:24.008Z,-3.15
2023-02-06T02:08:58.464Z,-3.06
2023-02-06T02:11:35.198Z,-3.00
2023-02-06T02:14:11.577Z,-2.86
2023-02-06T02:16:54.463Z,-2.83
2023-02-06T02:20:07.719Z,-2.92
2023-02-06T02:22:56.993Z,-3.01
2023-02-06T02:26:15.730Z,-3.02
2023-02-06T02:29:26.000Z,-3.10
2023-02-06T02:32:28.792Z,-3.20
2023-02-06T02:35:25.525Z,-3.21
2023-02-06T02:38:07.424Z,-3.31
2023-02-06T02:40:48.846Z,-3.37
2023-02-06T02:43:36.151Z,-3.39
2023-02-06T02:46:15.458Z,-3.43
2023-02-06T02:48:52.132Z,-3.46
2023-02-06T02:51:24.864Z,-3.51
2023-02-06T02:53:58.934Z,-3.52
2023-02-06T02:56:33.653Z,-3.54
2023-02-06T02:59:10.043Z,-3.61
2023-02-06T03:01:46.908Z,-3.61
2023-02-06T03:04:24.182Z,-3.60
2023-02-06T03:07:23.641Z,-3.61
2023-02-06T03:10:05.078Z,-3.66
2023-02-06T03:12:45.504Z,-3.67
2023-02-06T03:15:26.413Z,-3.71
2023-02-06T03:18:05.377Z,-3.71
2023-02-06T03:20:42.119Z,-3.70
2023-02-06T03:23:18.343Z,-3.70
2023-02-06T03:25:52.164Z,-3.70
2023-02-06T03:28:32.450Z,-3.70
2023-02-06T03:31:07.229Z,-3.69
2023-02-06T03:33:43.470Z,-3.75
2023-02-06T03:36:17.461Z,-3.84
2023-02-06T03:38:52.242Z,-3.80
2023-02-06T03:41:28.859Z,-3.63
2023-02-06T03:44:02.757Z,-3.49
2023-02-06T03:46:36.059Z,-3.33
2023-02-06T03:49:12.884Z,-3.25
2023-02-06T03:51:48.839Z,-3.28
2023-02-06T03:54:25.610Z,-3.22
2023-02-06T03:57:01.070Z,-3.13
2023-02-06T03:59:34.147Z,-3.08
2023-02-06T04:02:07.263Z,-3.09
2023-02-06T04:04:41.571Z,-3.15
2023-02-06T04:07:18.166Z,-3.22
2023-02-06T04:09:50.850Z,-3.22
2023-02-06T04:12:23.705Z,-3.25
2023-02-06T04:14:56.550Z,-3.28
2023-02-06T04:17:46.385Z,-3.32
2023-02-06T04:20:21.781Z,-3.32
2023-02-06T04:22:54.687Z,-3.30
2023-02-06T04:25:27.240Z,-3.35
2023-02-06T04:27:59.437Z,-3.35
2023-02-06T04:30:31.549Z,-3.42
2023-02-06T04:33:03.769Z,-3.46
2023-02-06T04:35:36.396Z,-3.47
2023-02-06T04:38:08.628Z,-3.47
2023-02-06T04:40:40.856Z,-3.42
2023-02-06T04:43:13.564Z,-3.39
2023-02-06T04:45:45.621Z,-3.33
2023-02-06T04:48:17.715Z,-3.33
2023-02-06T04:50:50.205Z,-3.21
2023-02-06T04:53:22.572Z,-3.16
2023-02-06T04:55:56.459Z,-3.10
2023-02-06T04:58:28.925Z,-3.05
2023-02-06T05:01:01.665Z,-3.03
2023-02-06T05:03:34.455Z,-3.06
2023-02-06T05:06:07.982Z,-3.11
2023-02-06T05:08:40.394Z,-3.27
2023-02-06T05:11:12.825Z,-3.30
2023-02-06T05:13:45.617Z,-3.43
2023-02-06T05:16:19.834Z,-3.41
2023-02-06T05:18:56.737Z,-3.52
2023-02-06T05:21:29.103Z,-3.57
2023-02-06T05:24:01.238Z,-3.72
2023-02-06T05:26:33.417Z,-3.81
2023-02-06T05:29:05.604Z,-3.89
2023-02-06T05:31:38.742Z,-3.99
2023-02-06T05:34:12.437Z,-4.00
2023-02-06T05:36:44.575Z,-4.06
2023-02-06T05:39:16.732Z,-4.16
2023-02-06T05:41:49.294Z,-4.09
2023-02-06T05:44:21.465Z,-4.02
2023-02-06T05:46:53.635Z,-3.99
2023-02-06T05:49:25.905Z,-3.92
2023-02-06T05:51:58.301Z,-3.85
2023-02-06T05:54:30.545Z,-3.84
2023-02-06T05:57:02.948Z,-3.89
2023-02-06T05:59:35.310Z,-3.92
2023-02-06T06:02:07.875Z,-3.98
2023-02-06T06:04:40.303Z,-4.00
2023-02-06T06:07:13.741Z,-3.93
2023-02-06T06:09:46.228Z,-3.85
2023-02-06T06:12:18.727Z,-3.76
2023-02-06T06:14:50.893Z,-3.68
2023-02-06T06:17:24.271Z,-3.62
2023-02-06T06:19:57.264Z,-3.55
2023-02-06T06:22:30.041Z,-3.50
2023-02-06T06:25:02.503Z,-3.46
2023-02-06T06:27:34.893Z,-3.42
2023-02-06T06:30:09.004Z,-3.36
2023-02-06T06:32:41.682Z,-3.37
2023-02-06T06:35:14.149Z,-3.36
2023-02-06T06:37:46.637Z,-3.29
2023-02-06T06:40:19.232Z,-3.32
2023-02-06T06:42:51.537Z,-3.32
2023-02-06T06:45:24.232Z,-3.31
2023-02-06T06:47:56.354Z,-3.34
2023-02-06T06:50:28.529Z,-3.33
2023-02-06T06:53:00.662Z,-3.34
2023-02-06T06:55:32.910Z,-3.35
2023-02-06T06:58:05.372Z,-3.40
2023-02-06T07:00:38.721Z,-3.36
2023-02-06T07:03:11.884Z,-3.41
2023-02-06T07:05:52.975Z,-3.44
2023-02-06T07:08:30.084Z,-3.39
2023-02-06T07:11:03.592Z,-3.36
2023-02-06T07:13:35.834Z,-3.29
2023-02-06T07:16:09.700Z,-3.22
2023-02-06T07:18:44.531Z,-3.12
2023-02-06T07:21:20.016Z,-3.09
2023-02-06T07:23:52.249Z,-3.07
2023-02-06T07:26:24.873Z,-3.10
2023-02-06T07:28:57.749Z,-3.08
2023-02-06T07:31:31.025Z,-3.00
2023-02-06T07:34:04.214Z,-3.05
2023-02-06T07:36:37.534Z,-3.10
2023-02-06T07:39:09.810Z,-3.07
2023-02-06T07:41:43.016Z,-3.05
2023-02-06T07:44:18.655Z,-2.94
2023-02-06T07:46:52.912Z,-2.91
2023-02-06T07:49:25.507Z,-3.02
2023-02-06T07:51:58.040Z,-3.00
2023-02-06T07:54:31.417Z,-2.83
2023-02-06T07:57:03.794Z,-2.67
2023-02-06T07:59:36.204Z,-2.54
2023-02-06T08:02:10.808Z,-2.44
2023-02-06T08:04:44.186Z,-2.47
2023-02-06T08:07:23.287Z,-2.43
2023-02-06T08:09:56.205Z,-2.48
2023-02-06T08:12:30.443Z,-2.53
2023-02-06T08:15:02.789Z,-2.43
2023-02-06T08:17:34.996Z,-2.30
2023-02-06T08:20:07.673Z,-2.25
2023-02-06T08:22:39.852Z,-2.21
2023-02-06T08:25:12.312Z,-2.25
2023-02-06T08:27:44.661Z,-2.34
2023-02-06T08:30:17.677Z,-2.39
2023-02-06T08:32:50.571Z,-2.38
2023-02-06T08:35:23.692Z,-2.33
2023-02-06T08:37:56.006Z,-2.30
2023-02-06T08:40:28.210Z,-2.31
2023-02-06T08:43:00.894Z,-2.25
2023-02-06T08:45:33.690Z,-2.13
2023-02-06T08:48:07.871Z,-1.97
2023-02-06T08:50:40.291Z,-1.83
2023-02-06T08:53:12.817Z,-1.67
2023-02-06T08:55:45.192Z,-1.45
2023-02-06T08:58:24.117Z,-1.21
2023-02-06T09:00:58.427Z,-0.91
2023-02-06T09:03:31.650Z,-0.74
2023-02-06T09:06:10.119Z,-0.53
2023-02-06T09:08:43.773Z,-0.45
2023-02-06T09:11:18.709Z,-0.28
2023-02-06T09:13:51.758Z,-0.04
2023-02-06T09:16:25.198Z,-0.10
2023-02-06T09:19:01.528Z,-0.13
2023-02-06T09:21:39.072Z,0.07
2023-02-06T09:24:12.823Z,0.05
2023-02-06T09:26:59.016Z,-0.03
2023-02-06T09:29:33.885Z,0.01
2023-02-06T09:32:06.363Z,0.09
2023-02-06T09:34:39.106Z,0.21
2023-02-06T09:37:11.388Z,0.32
2023-02-06T09:39:51.314Z,0.32
2023-02-06T09:42:32.801Z,0.37
2023-02-06T09:45:14.016Z,0.44
2023-02-06T09:47:51.736Z,0.36
2023-02-06T09:50:31.829Z,0.33
2023-02-06T09:53:18.385Z,0.39
2023-02-06T09:55:56.945Z,0.31
2023-02-06T09:58:43.077Z,0.26
2023-02-06T10:01:22.041Z,0.31
2023-02-06T10:04:14.102Z,0.34
2023-02-06T10:06:55.299Z,0.21
2023-02-06T10:09:36.815Z,0.09
2023-02-06T10:12:15.942Z,-0.14
2023-02-06T10:14:52.174Z,-0.29
2023-02-06T10:17:24.708Z,-0.29
2023-02-06T10:20:01.631Z,-0.40
2023-02-06T10:22:41.713Z,-0.40
2023-02-06T10:25:26.206Z,-0.41
2023-02-06T10:28:03.983Z,-0.53
2023-02-06T10:30:50.851Z,-0.45
2023-02-06T10:33:34.033Z,-0.51
2023-02-06T10:36:12.652Z,-0.49
2023-02-06T10:39:07.935Z,-0.36
2023-02-06T10:41:50.246Z,-0.29
2023-02-06T10:44:29.420Z,-0.29
2023-02-06T10:47:02.142Z,-0.14
2023-02-06T10:49:40.123Z,-0.21
2023-02-06T10:52:23.779Z,-0.11
2023-02-06T10:55:00.011Z,-0.06
2023-02-06T10:57:33.912Z,0.01
2023-02-06T11:00:17.186Z,-0.04
2023-02-06T11:03:06.879Z,-0.02
2023-02-06T11:05:41.623Z,0.18
2023-02-06T11:08:21.678Z,0.30
2023-02-06T11:10:54.171Z,0.39
2023-02-06T11:13:30.871Z,0.44
2023-02-06T11:16:08.380Z,0.57
2023-02-06T11:18:45.088Z,0.58
2023-02-06T11:21:38.544Z,0.79
2023-02-06T11:24:15.566Z,0.95
2023-02-06T11:26:51.741Z,0.90
2023-02-06T11:29:33.038Z,0.88
2023-02-06T11:32:08.553Z,0.96
2023-02-06T11:34:52.040Z,1.18
2023-02-06T11:37:37.994Z,1.32
2023-02-06T11:40:29.480Z,1.43
2023-02-06T11:43:19.440Z,1.56
2023-02-06T11:46:07.033Z,1.64
2023-02-06T11:48:41.780Z,1.85
2023-02-06T11:51:15.076Z,2.08
2023-02-06T11:54:01.971Z,2.23
2023-02-06T11:56:36.222Z,2.25
2023-02-06T11:59:23.551Z,2.24
2023-02-06T12:01:57.116Z,2.30
2023-02-06T12:04:35.934Z,2.43
2023-02-06T12:07:15.628Z,2.57
2023-02-06T12:09:48.330Z,2.71
2023-02-06T12:12:30.245Z,2.74
2023-02-06T12:15:36.148Z,2.63
2023-02-06T12:18:23.461Z,2.57
2023-02-06T12:21:01.847Z,2.60
2023-02-06T12:23:40.615Z,2.63
2023-02-06T12:26:17.511Z,2.58
2023-02-06T12:28:59.108Z,2.49
2023-02-06T12:31:38.285Z,2.53
2023-02-06T12:34:18.598Z,2.55
2023-02-06T12:37:09.319Z,2.62
2023-02-06T12:39:43.243Z,2.60
2023-02-06T12:42:36.367Z,2.62
2023-02-06T12:45:31.941Z,2.75
2023-02-06T12:48:13.980Z,2.78
2023-02-06T12:50:52.875Z,2.73
2023-02-06T12:53:30.762Z,2.76
2023-02-06T12:56:07.595Z,2.87
2023-02-06T12:59:04.833Z,3.00
2023-02-06T13:01:52.248Z,3.09
2023-02-06T13:04:27.619Z,3.22
2023-02-06T13:07:06.828Z,3.30
2023-02-06T13:09:42.871Z,3.32
2023-02-06T13:12:21.047Z,3.45
2023-02-06T13:14:56.830Z,3.58
2023-02-06T13:17:34.606Z,3.67
2023-02-06T13:20:14.562Z,3.69
2023-02-06T13:22:50.465Z,3.68
2023-02-06T13:25:54.834Z,3.69
2023-02-06T13:28:58.306Z,3.69
2023-02-06T13:31:34.628Z,3.68
2023-02-06T13:34:17.299Z,3.65
2023-02-06T13:36:55.325Z,3.51
2023-02-06T13:39:34.951Z,3.31
2023-02-06T13:42:43.048Z,3.23
2023-02-06T13:45:23.643Z,3.11
2023-02-06T13:48:37.143Z,3.10
2023-02-06T13:51:24.913Z,3.14
2023-02-06T13:54:42.232Z,3.04
2023-02-06T13:57:29.563Z,3.67
2023-02-06T14:00:12.066Z,5.65
2023-02-06T14:02:48.924Z,7.04
2023-02-06T14:05:25.091Z,8.18
2023-02-06T14:08:07.494Z,9.13
2023-02-06T14:11:06.352Z,9.67
2023-02-06T14:14:01.681Z,10.67
2023-02-06T14:16:49.638Z,11.29
2023-02-06T14:19:33.564Z,11.88
2023-02-06T14:22:19.196Z,12.17
2023-02-06T14:25:15.146Z,12.42
2023-02-06T14:28:01.961Z,12.65
2023-02-06T14:30:44.273Z,12.76
2023-02-06T14:33:44.226Z,12.58
2023-02-06T14:36:32.565Z,11.48
2023-02-06T14:39:32.306Z,9.98
2023-02-06T14:42:13.519Z,8.68
2023-02-06T14:44:50.700Z,7.65
2023-02-06T14:47:27.344Z,6.78
2023-02-06T14:50:01.898Z,6.06
2023-02-06T14:52:35.827Z,5.47
2023-02-06T14:55:36.764Z,4.93
2023-02-06T14:58:20.125Z,4.64
2023-02-06T15:00:52.704Z,4.51
2023-02-06T15:03:26.943Z,4.47
2023-02-06T15:06:22.158Z,4.30
2023-02-06T15:08:55.219Z,3.96
2023-02-06T15:11:32.887Z,3.72
2023-02-06T15:14:09.194Z,3.45
2023-02-06T15:16:51.094Z,3.26
2023-02-06T15:19:25.636Z,3.10
2023-02-06T15:22:02.336Z,2.95
2023-02-06T15:24:51.297Z,2.76
2023-02-06T15:27:30.041Z,2.56
2023-02-06T15:30:04.807Z,2.31
2023-02-06T15:32:45.180Z,2.10
2023-02-06T15:35:25.315Z,1.89
2023-02-06T15:38:03.893Z,1.60
2023-02-06T15:40:42.389Z,1.39
2023-02-06T15:43:17.354Z,1.19
2023-02-06T15:45:51.784Z,0.88
2023-02-06T15:48:29.442Z,0.68
2023-02-06T15:51:03.887Z,0.46
2023-02-06T15:53:39.841Z,0.30
2023-02-06T15:56:23.151Z,0.13
2023-02-06T15:59:01.579Z,-0.03
2023-02-06T16:01:37.363Z,-0.18
2023-02-06T16:04:14.633Z,-0.33
2023-02-06T16:06:48.406Z,-0.45
2023-02-06T16:09:23.778Z,-0.58
2023-02-06T16:11:58.308Z,-0.68
2023-02-06T16:14:36.616Z,-0.77
2023-02-06T16:17:26.702Z,-0.88
2023-02-06T16:20:03.091Z,-0.99
2023-02-06T16:22:34.818Z,-1.09
2023-02-06T16:25:22.885Z,-1.18
2023-02-06T16:27:55.737Z,-1.29
2023-02-06T16:30:30.986Z,-1.34
2023-02-06T16:33:20.211Z,-1.41
2023-02-06T16:35:53.049Z,-1.49
2023-02-06T16:38:25.368Z,-1.54
2023-02-06T16:40:58.068Z,-1.63
2023-02-06T16:43:33.087Z,-1.67
2023-02-06T16:46:05.471Z,-1.75
2023-02-06T16:48:38.470Z,-1.83
2023-02-06T16:51:13.677Z,-1.90
2023-02-06T16:53:48.363Z,-1.96
2023-02-06T16:56:22.720Z,-2.01
2023-02-06T16:58:54.955Z,-2.03
2023-02-06T17:01:29.851Z,-2.10
2023-02-06T17:04:02.197Z,-2.16
2023-02-06T17:06:36.975Z,-2.19
2023-02-06T17:09:14.454Z,-2.23
2023-02-06T17:11:46.728Z,-2.26
2023-02-06T17:14:19.067Z,-2.35
2023-02-06T17:16:51.643Z,-2.42
2023-02-06T17:19:26.264Z,-2.49
2023-02-06T17:21:58.787Z,-2.56
2023-02-06T17:24:31.150Z,-2.60
2023-02-06T17:27:03.737Z,-2.66
2023-02-06T17:29:36.338Z,-2.72
2023-02-06T17:32:09.447Z,-2.78
2023-02-06T17:34:41.668Z,-2.82
2023-02-06T17:37:20.975Z,-2.90
2023-02-06T17:39:54.393Z,-2.94
2023-02-06T17:42:26.823Z,-2.98
2023-02-06T17:44:59.194Z,-3.04
2023-02-06T17:47:31.642Z,-3.08
2023-02-06T17:50:04.078Z,-3.10
2023-02-06T17:52:36.372Z,-3.16
2023-02-06T17:55:10.474Z,-3.22
2023-02-06T17:57:43.046Z,-3.27
2023-02-06T18:00:18.660Z,-3.31
2023-02-06T18:02:51.848Z,-3.33
2023-02-06T18:05:25.064Z,-3.35
2023-02-06T18:07:57.067Z,-3.37
2023-02-06T18:10:29.340Z,-3.43
2023-02-06T18:13:01.562Z,-3.46
2023-02-06T18:15:33.684Z,-3.51
2023-02-06T18:18:06.005Z,-3.55
2023-02-06T18:20:40.491Z,-3.61
2023-02-06T18:23:14.681Z,-3.64
2023-02-06T18:25:47.234Z,-3.68
2023-02-06T18:28:20.160Z,-3.74
2023-02-06T18:30:52.454Z,-3.79
2023-02-06T18:33:24.809Z,-3.83
2023-02-06T18:35:57.541Z,-3.81
2023-02-06T18:38:29.813Z,-3.81
2023-02-06T18:41:05.914Z,-3.79
2023-02-06T18:43:38.201Z,-3.78
2023-02-06T18:46:11.289Z,-3.77
2023-02-06T18:48:44.196Z,-3.75
2023-02-06T18:51:16.278Z,-3.76
2023-02-06T18:53:48.554Z,-3.78
2023-02-06T18:56:21.171Z,-3.81
2023-02-06T18:58:53.319Z,-3.88
2023-02-06T19:01:27.325Z,-3.86
2023-02-06T19:04:00.857Z,-3.79
2023-02-06T19:06:36.776Z,-3.68
2023-02-06T19:09:09.933Z,-3.69
2023-02-06T19:11:43.568Z,-3.66
2023-02-06T19:14:18.446Z,-3.63
2023-02-06T19:16:52.974Z,-3.59
2023-02-06T19:19:24.962Z,-3.61
2023-02-06T19:21:58.073Z,-3.67
2023-02-06T19:24:31.122Z,-3.73
2023-02-06T19:27:03.261Z,-3.75
2023-02-06T19:29:36.698Z,-3.79
2023-02-06T19:32:10.282Z,-3.87
2023-02-06T19:34:45.335Z,-3.98
2023-02-06T19:37:17.510Z,-3.98
2023-02-06T19:39:50.014Z,-4.00
2023-02-06T19:42:22.315Z,-4.03
2023-02-06T19:44:55.936Z,-4.09
2023-02-06T19:47:28.087Z,-4.11
2023-02-06T19:50:00.323Z,-4.16
2023-02-06T19:52:32.974Z,-4.24
2023-02-06T19:55:05.375Z,-4.30
2023-02-06T19:57:39.704Z,-4.31
2023-02-06T20:00:14.273Z,-4.34
2023-02-06T20:02:47.434Z,-4.39
2023-02-06T20:05:26.080Z,-4.38
2023-02-06T20:07:58.143Z,-4.39
2023-02-06T20:10:30.549Z,-4.43
2023-02-06T20:13:03.086Z,-4.51
2023-02-06T20:15:40.460Z,-4.57
2023-02-06T20:18:12.839Z,-4.66
2023-02-06T20:20:47.249Z,-4.74
2023-02-06T20:23:19.601Z,-4.77
2023-02-06T20:25:52.000Z,-4.74
2023-02-06T20:28:24.784Z,-4.64
2023-02-06T20:30:57.390Z,-4.55
2023-02-06T20:33:29.863Z,-4.46
2023-02-06T20:36:08.164Z,-4.37
2023-02-06T20:38:40.488Z,-4.35
2023-02-06T20:41:13.081Z,-4.43
2023-02-06T20:43:47.816Z,-4.50
2023-02-06T20:46:21.783Z,-4.60
2023-02-06T20:48:58.956Z,-4.70
2023-02-06T20:51:32.143Z,-4.78
2023-02-06T20:54:04.511Z,-4.82
2023-02-06T20:56:36.818Z,-4.93
2023-02-06T20:59:09.791Z,-5.05
2023-02-06T21:01:42.737Z,-5.11
2023-02-06T21:04:16.432Z,-5.15
2023-02-06T21:06:50.228Z,-5.16
2023-02-06T21:09:22.554Z,-5.20
2023-02-06T21:11:54.911Z,-5.27
2023-02-06T21:14:30.071Z,-5.30
2023-02-06T21:17:02.394Z,-5.33
2023-02-06T21:19:34.477Z,-5.36
2023-02-06T21:22:06.834Z,-5.43
2023-02-06T21:24:39.096Z,-5.48
2023-02-06T21:27:11.180Z,-5.58
2023-02-06T21:29:43.276Z,-5.63
2023-02-06T21:32:15.798Z,-5.61
2023-02-06T21:34:48.500Z,-5.53
2023-02-06T21:37:22.803Z,-5.46
2023-02-06T21:39:54.885Z,-5.36
2023-02-06T21:42:27.648Z,-5.25
2023-02-06T21:44:59.823Z,-5.12
2023-02-06T21:47:32.048Z,-5.01
2023-02-06T21:50:04.369Z,-4.86
2023-02-06T21:52:38.891Z,-4.75
2023-02-06T21:55:11.797Z,-4.61
2023-02-06T21:57:43.987Z,-4.55
2023-02-06T22:00:18.949Z,-4.55
2023-02-06T22:02:51.286Z,-4.54
2023-02-06T22:05:24.655Z,-4.62
2023-02-06T22:07:58.520Z,-4.77
2023-02-06T22:10:30.841Z,-4.75
2023-02-06T22:13:03.012Z,-4.74
2023-02-06T22:15:35.827Z,-4.79
2023-02-06T22:18:10.410Z,-4.88
2023-02-06T22:20:42.600Z,-4.98
2023-02-06T22:23:14.808Z,-5.16
2023-02-06T22:25:50.467Z,-5.30
2023-02-06T22:28:22.598Z,-5.37
2023-02-06T22:30:54.791Z,-5.39
2023-02-06T22:33:27.003Z,-5.44
2023-02-06T22:35:59.345Z,-5.54
2023-02-06T22:38:31.467Z,-5.61
2023-02-06T22:41:06.281Z,-5.66
2023-02-06T22:43:39.811Z,-5.72
2023-02-06T22:46:22.346Z,-5.82
2023-02-06T22:48:55.416Z,-5.95
2023-02-06T22:51:28.055Z,-5.98
2023-02-06T22:54:00.725Z,-5.96
2023-02-06T22:56:36.985Z,-5.84
2023-02-06T22:59:11.888Z,-5.75
2023-02-06T23:01:46.308Z,-5.74
2023-02-06T23:04:20.532Z,-5.67
2023-02-06T23:06:53.666Z,-5.59
2023-02-06T23:09:31.056Z,-5.60
2023-02-06T23:12:04.277Z,-5.62
2023-02-06T23:14:36.664Z,-5.55
2023-02-06T23:17:08.821Z,-5.45
2023-02-06T23:19:41.279Z,-5.42
2023-02-06T23:22:13.470Z,-5.39
2023-02-06T23:24:45.664Z,-5.36
2023-02-06T23:27:19.817Z,-5.36
2023-02-06T23:29:51.986Z,-5.48
2023-02-06T23:32:24.147Z,-5.75
2023-02-06T23:34:59.705Z,-5.73
2023-02-06T23:37:32.023Z,-5.76
2023-02-06T23:40:05.570Z,-5.79
2023-02-06T23:42:38.766Z,-5.85
2023-02-06T23:45:11.814Z,-5.83
2023-02-06T23:47:44.012Z,-5.82
2023-02-06T23:50:16.643Z,-5.87
2023-02-06T23:52:48.786Z,-5.95
2023-02-06T23:55:25.053Z,-6.08
2023-02-06T23:57:57.775Z,-6.13
